sensor_id;sensor_type;location;lat;lon;timestamp;P1;durP1;ratioP1;P2;durP2;ratioP2
23728;SDS011;12045;60.214;24.724;2023-05-21T00:01:41;2.38;;;1.92;;
23728;SDS011;12045;60.214;24.724;2023-05-21T00:04:09;4.20;;;2.20;;
23728;SDS011;12045;60.214;24.724;2023-05-21T00:06:38;3.05;;;2.30;;
23728;SDS011;12045;60.214;24.724;2023-05-21T00:09:06;2.80;;;2.25;;
23728;SDS011;12045;60.214;24.724;2023-05-21T00:11:34;3.15;;;2.17;;
23728;SDS011;12045;60.214;24.724;2023-05-21T00:14:02;4.05;;;2.50;;
23728;SDS011;12045;60.214;24.724;2023-05-21T00:16:29;2.60;;;2.10;;
23728;SDS011;12045;60.214;24.724;2023-05-21T00:18:57;5.93;;;2.10;;
23728;SDS011;12045;60.214;24.724;2023-05-21T00:21:25;3.08;;;2.30;;
23728;SDS011;12045;60.214;24.724;2023-05-21T00:23:53;5.38;;;2.20;;
23728;SDS011;12045;60.214;24.724;2023-05-21T00:26:22;3.92;;;2.45;;
23728;SDS011;12045;60.214;24.724;2023-05-21T00:28:50;5.93;;;2.35;;
23728;SDS011;12045;60.214;24.724;2023-05-21T00:31:18;2.85;;;2.22;;
23728;SDS011;12045;60.214;24.724;2023-05-21T00:33:45;4.88;;;2.20;;
23728;SDS011;12045;60.214;24.724;2023-05-21T00:36:13;3.53;;;2.58;;
23728;SDS011;12045;60.214;24.724;2023-05-21T00:38:42;2.65;;;1.90;;
23728;SDS011;12045;60.214;24.724;2023-05-21T00:41:11;2.17;;;1.98;;
23728;SDS011;12045;60.214;24.724;2023-05-21T00:43:39;3.00;;;2.10;;
23728;SDS011;12045;60.214;24.724;2023-05-21T00:46:09;4.30;;;2.15;;
23728;SDS011;12045;60.214;24.724;2023-05-21T00:48:37;2.92;;;2.00;;
23728;SDS011;12045;60.214;24.724;2023-05-21T00:51:06;3.28;;;2.63;;
23728;SDS011;12045;60.214;24.724;2023-05-21T00:53:34;2.83;;;2.40;;
23728;SDS011;12045;60.214;24.724;2023-05-21T00:56:01;4.35;;;2.10;;
23728;SDS011;12045;60.214;24.724;2023-05-21T00:58:29;3.20;;;2.40;;
23728;SDS011;12045;60.214;24.724;2023-05-21T01:00:59;5.53;;;2.30;;
23728;SDS011;12045;60.214;24.724;2023-05-21T01:03:33;2.95;;;2.33;;
23728;SDS011;12045;60.214;24.724;2023-05-21T01:06:04;2.55;;;1.70;;
23728;SDS011;12045;60.214;24.724;2023-05-21T01:08:32;3.00;;;1.80;;
23728;SDS011;12045;60.214;24.724;2023-05-21T01:11:02;5.57;;;2.22;;
23728;SDS011;12045;60.214;24.724;2023-05-21T01:13:30;5.22;;;2.30;;
23728;SDS011;12045;60.214;24.724;2023-05-21T01:15:58;4.05;;;1.77;;
23728;SDS011;12045;60.214;24.724;2023-05-21T01:18:27;4.40;;;2.00;;
23728;SDS011;12045;60.214;24.724;2023-05-21T01:20:55;4.20;;;2.30;;
23728;SDS011;12045;60.214;24.724;2023-05-21T01:23:23;2.22;;;2.03;;
23728;SDS011;12045;60.214;24.724;2023-05-21T01:25:51;3.20;;;2.15;;
23728;SDS011;12045;60.214;24.724;2023-05-21T01:28:19;4.97;;;1.80;;
23728;SDS011;12045;60.214;24.724;2023-05-21T01:30:47;2.42;;;1.85;;
23728;SDS011;12045;60.214;24.724;2023-05-21T01:33:19;3.40;;;2.20;;
23728;SDS011;12045;60.214;24.724;2023-05-21T01:35:49;2.97;;;2.08;;
23728;SDS011;12045;60.214;24.724;2023-05-21T01:38:24;3.30;;;2.00;;
23728;SDS011;12045;60.214;24.724;2023-05-21T01:41:00;2.20;;;1.70;;
23728;SDS011;12045;60.214;24.724;2023-05-21T01:43:33;3.78;;;1.83;;
23728;SDS011;12045;60.214;24.724;2023-05-21T01:46:01;3.97;;;2.00;;
23728;SDS011;12045;60.214;24.724;2023-05-21T01:48:29;3.33;;;2.30;;
23728;SDS011;12045;60.214;24.724;2023-05-21T01:51:01;2.53;;;2.10;;
23728;SDS011;12045;60.214;24.724;2023-05-21T01:53:30;2.42;;;1.95;;
23728;SDS011;12045;60.214;24.724;2023-05-21T01:55:58;2.65;;;2.10;;
23728;SDS011;12045;60.214;24.724;2023-05-21T01:58:26;3.50;;;2.28;;
23728;SDS011;12045;60.214;24.724;2023-05-21T02:00:54;2.85;;;2.22;;
23728;SDS011;12045;60.214;24.724;2023-05-21T02:03:24;2.72;;;2.30;;
23728;SDS011;12045;60.214;24.724;2023-05-21T02:05:52;3.65;;;2.55;;
23728;SDS011;12045;60.214;24.724;2023-05-21T02:08:21;2.90;;;2.60;;
23728;SDS011;12045;60.214;24.724;2023-05-21T02:10:49;3.10;;;2.80;;
23728;SDS011;12045;60.214;24.724;2023-05-21T02:13:17;3.97;;;2.85;;
23728;SDS011;12045;60.214;24.724;2023-05-21T02:15:51;4.78;;;2.58;;
23728;SDS011;12045;60.214;24.724;2023-05-21T02:18:20;3.00;;;2.60;;
23728;SDS011;12045;60.214;24.724;2023-05-21T02:20:48;2.90;;;2.47;;
23728;SDS011;12045;60.214;24.724;2023-05-21T02:23:16;4.63;;;2.60;;
23728;SDS011;12045;60.214;24.724;2023-05-21T02:25:44;5.13;;;2.80;;
23728;SDS011;12045;60.214;24.724;2023-05-21T02:28:12;4.22;;;2.72;;
23728;SDS011;12045;60.214;24.724;2023-05-21T02:30:40;4.35;;;2.60;;
23728;SDS011;12045;60.214;24.724;2023-05-21T02:33:07;2.83;;;2.20;;
23728;SDS011;12045;60.214;24.724;2023-05-21T02:35:35;4.25;;;2.40;;
23728;SDS011;12045;60.214;24.724;2023-05-21T02:38:03;3.30;;;2.30;;
23728;SDS011;12045;60.214;24.724;2023-05-21T02:40:31;3.50;;;2.60;;
23728;SDS011;12045;60.214;24.724;2023-05-21T02:42:59;3.80;;;2.25;;
23728;SDS011;12045;60.214;24.724;2023-05-21T02:45:27;3.70;;;2.65;;
23728;SDS011;12045;60.214;24.724;2023-05-21T02:47:55;5.07;;;3.65;;
23728;SDS011;12045;60.214;24.724;2023-05-21T02:50:23;4.00;;;2.22;;
23728;SDS011;12045;60.214;24.724;2023-05-21T02:52:50;4.47;;;2.78;;
23728;SDS011;12045;60.214;24.724;2023-05-21T02:55:18;3.13;;;2.13;;
23728;SDS011;12045;60.214;24.724;2023-05-21T02:57:46;2.80;;;2.00;;
23728;SDS011;12045;60.214;24.724;2023-05-21T03:00:14;2.15;;;1.90;;
23728;SDS011;12045;60.214;24.724;2023-05-21T03:02:42;3.92;;;2.17;;
23728;SDS011;12045;60.214;24.724;2023-05-21T03:05:10;2.67;;;2.10;;
23728;SDS011;12045;60.214;24.724;2023-05-21T03:07:38;2.70;;;1.92;;
23728;SDS011;12045;60.214;24.724;2023-05-21T03:10:07;2.30;;;1.92;;
23728;SDS011;12045;60.214;24.724;2023-05-21T03:12:35;2.92;;;2.50;;
23728;SDS011;12045;60.214;24.724;2023-05-21T03:15:03;5.07;;;2.17;;
23728;SDS011;12045;60.214;24.724;2023-05-21T03:17:31;3.38;;;2.28;;
23728;SDS011;12045;60.214;24.724;2023-05-21T03:19:59;3.22;;;2.33;;
23728;SDS011;12045;60.214;24.724;2023-05-21T03:22:27;4.53;;;2.30;;
23728;SDS011;12045;60.214;24.724;2023-05-21T03:24:55;3.50;;;2.60;;
23728;SDS011;12045;60.214;24.724;2023-05-21T03:27:24;3.63;;;2.25;;
23728;SDS011;12045;60.214;24.724;2023-05-21T03:29:52;2.80;;;2.40;;
23728;SDS011;12045;60.214;24.724;2023-05-21T03:32:21;3.80;;;2.42;;
23728;SDS011;12045;60.214;24.724;2023-05-21T03:34:49;3.22;;;2.13;;
23728;SDS011;12045;60.214;24.724;2023-05-21T03:37:17;6.38;;;2.50;;
23728;SDS011;12045;60.214;24.724;2023-05-21T03:39:44;3.50;;;2.65;;
23728;SDS011;12045;60.214;24.724;2023-05-21T03:42:12;2.55;;;2.30;;
23728;SDS011;12045;60.214;24.724;2023-05-21T03:44:40;4.57;;;2.67;;
23728;SDS011;12045;60.214;24.724;2023-05-21T03:47:08;3.40;;;2.00;;
23728;SDS011;12045;60.214;24.724;2023-05-21T03:49:36;5.22;;;2.50;;
23728;SDS011;12045;60.214;24.724;2023-05-21T03:52:04;5.20;;;3.20;;
23728;SDS011;12045;60.214;24.724;2023-05-21T03:54:32;4.30;;;2.80;;
23728;SDS011;12045;60.214;24.724;2023-05-21T03:57:00;3.53;;;2.53;;
23728;SDS011;12045;60.214;24.724;2023-05-21T03:59:28;6.88;;;3.55;;
23728;SDS011;12045;60.214;24.724;2023-05-21T04:01:55;3.10;;;2.80;;
23728;SDS011;12045;60.214;24.724;2023-05-21T04:04:23;9.20;;;2.72;;
23728;SDS011;12045;60.214;24.724;2023-05-21T04:06:51;3.97;;;2.92;;
23728;SDS011;12045;60.214;24.724;2023-05-21T04:09:20;5.10;;;2.88;;
23728;SDS011;12045;60.214;24.724;2023-05-21T04:11:48;4.45;;;2.60;;
23728;SDS011;12045;60.214;24.724;2023-05-21T04:14:16;4.35;;;2.40;;
23728;SDS011;12045;60.214;24.724;2023-05-21T04:16:43;3.97;;;2.70;;
23728;SDS011;12045;60.214;24.724;2023-05-21T04:19:11;6.15;;;2.50;;
23728;SDS011;12045;60.214;24.724;2023-05-21T04:21:39;4.75;;;2.90;;
23728;SDS011;12045;60.214;24.724;2023-05-21T04:24:07;4.25;;;2.70;;
23728;SDS011;12045;60.214;24.724;2023-05-21T04:26:35;3.80;;;2.55;;
23728;SDS011;12045;60.214;24.724;2023-05-21T04:29:03;3.75;;;2.60;;
23728;SDS011;12045;60.214;24.724;2023-05-21T04:31:31;5.70;;;2.78;;
23728;SDS011;12045;60.214;24.724;2023-05-21T04:33:59;5.40;;;2.85;;
23728;SDS011;12045;60.214;24.724;2023-05-21T04:36:27;4.93;;;2.55;;
23728;SDS011;12045;60.214;24.724;2023-05-21T04:38:55;4.47;;;2.50;;
23728;SDS011;12045;60.214;24.724;2023-05-21T04:41:23;4.07;;;2.65;;
23728;SDS011;12045;60.214;24.724;2023-05-21T04:43:51;5.72;;;2.40;;
23728;SDS011;12045;60.214;24.724;2023-05-21T04:46:21;5.82;;;2.70;;
23728;SDS011;12045;60.214;24.724;2023-05-21T04:48:52;2.75;;;2.15;;
23728;SDS011;12045;60.214;24.724;2023-05-21T04:51:23;3.97;;;2.38;;
23728;SDS011;12045;60.214;24.724;2023-05-21T04:53:52;5.93;;;2.40;;
23728;SDS011;12045;60.214;24.724;2023-05-21T04:56:20;3.47;;;2.60;;
23728;SDS011;12045;60.214;24.724;2023-05-21T04:58:48;4.05;;;2.53;;
23728;SDS011;12045;60.214;24.724;2023-05-21T05:01:15;5.03;;;2.47;;
23728;SDS011;12045;60.214;24.724;2023-05-21T05:03:44;3.00;;;2.38;;
23728;SDS011;12045;60.214;24.724;2023-05-21T05:06:12;3.63;;;2.30;;
23728;SDS011;12045;60.214;24.724;2023-05-21T05:08:40;3.67;;;1.77;;
23728;SDS011;12045;60.214;24.724;2023-05-21T05:11:08;9.02;;;2.53;;
23728;SDS011;12045;60.214;24.724;2023-05-21T05:13:36;2.38;;;1.80;;
23728;SDS011;12045;60.214;24.724;2023-05-21T05:16:04;2.40;;;2.00;;
23728;SDS011;12045;60.214;24.724;2023-05-21T05:18:31;4.45;;;2.17;;
23728;SDS011;12045;60.214;24.724;2023-05-21T05:21:00;3.42;;;2.10;;
23728;SDS011;12045;60.214;24.724;2023-05-21T05:23:27;2.72;;;2.05;;
23728;SDS011;12045;60.214;24.724;2023-05-21T05:25:55;2.15;;;1.70;;
23728;SDS011;12045;60.214;24.724;2023-05-21T05:28:23;4.00;;;1.90;;
23728;SDS011;12045;60.214;24.724;2023-05-21T05:30:51;3.10;;;1.92;;
23728;SDS011;12045;60.214;24.724;2023-05-21T05:33:19;3.90;;;2.50;;
23728;SDS011;12045;60.214;24.724;2023-05-21T05:35:47;3.08;;;1.83;;
23728;SDS011;12045;60.214;24.724;2023-05-21T05:38:14;2.78;;;1.80;;
23728;SDS011;12045;60.214;24.724;2023-05-21T05:40:42;1.95;;;1.60;;
23728;SDS011;12045;60.214;24.724;2023-05-21T05:43:10;3.20;;;1.80;;
23728;SDS011;12045;60.214;24.724;2023-05-21T05:45:38;2.45;;;1.73;;
23728;SDS011;12045;60.214;24.724;2023-05-21T05:48:06;4.00;;;1.70;;
23728;SDS011;12045;60.214;24.724;2023-05-21T05:50:34;1.88;;;1.52;;
23728;SDS011;12045;60.214;24.724;2023-05-21T05:53:01;1.42;;;1.30;;
23728;SDS011;12045;60.214;24.724;2023-05-21T05:55:29;1.45;;;1.30;;
23728;SDS011;12045;60.214;24.724;2023-05-21T05:57:57;2.40;;;1.65;;
23728;SDS011;12045;60.214;24.724;2023-05-21T06:00:25;1.30;;;1.20;;
23728;SDS011;12045;60.214;24.724;2023-05-21T06:02:52;3.10;;;1.30;;
23728;SDS011;12045;60.214;24.724;2023-05-21T06:05:20;2.17;;;1.55;;
23728;SDS011;12045;60.214;24.724;2023-05-21T06:07:48;2.58;;;1.50;;
23728;SDS011;12045;60.214;24.724;2023-05-21T06:10:16;2.95;;;1.60;;
23728;SDS011;12045;60.214;24.724;2023-05-21T06:12:46;3.67;;;1.50;;
23728;SDS011;12045;60.214;24.724;2023-05-21T06:15:14;2.85;;;1.60;;
23728;SDS011;12045;60.214;24.724;2023-05-21T06:17:42;2.03;;;1.50;;
23728;SDS011;12045;60.214;24.724;2023-05-21T06:20:10;2.17;;;1.70;;
23728;SDS011;12045;60.214;24.724;2023-05-21T06:22:38;2.15;;;1.52;;
23728;SDS011;12045;60.214;24.724;2023-05-21T06:25:06;2.38;;;1.60;;
23728;SDS011;12045;60.214;24.724;2023-05-21T06:27:34;2.50;;;1.58;;
23728;SDS011;12045;60.214;24.724;2023-05-21T06:30:01;1.70;;;1.35;;
23728;SDS011;12045;60.214;24.724;2023-05-21T06:32:30;1.60;;;1.50;;
23728;SDS011;12045;60.214;24.724;2023-05-21T06:34:58;3.30;;;1.42;;
23728;SDS011;12045;60.214;24.724;2023-05-21T06:37:26;2.97;;;1.67;;
23728;SDS011;12045;60.214;24.724;2023-05-21T06:39:54;4.32;;;1.60;;
23728;SDS011;12045;60.214;24.724;2023-05-21T06:42:21;1.38;;;1.23;;
23728;SDS011;12045;60.214;24.724;2023-05-21T06:44:49;2.25;;;1.50;;
23728;SDS011;12045;60.214;24.724;2023-05-21T06:47:17;3.38;;;1.70;;
23728;SDS011;12045;60.214;24.724;2023-05-21T06:49:44;3.78;;;1.50;;
23728;SDS011;12045;60.214;24.724;2023-05-21T06:52:12;1.75;;;1.50;;
23728;SDS011;12045;60.214;24.724;2023-05-21T06:54:40;2.78;;;1.40;;
23728;SDS011;12045;60.214;24.724;2023-05-21T06:57:08;1.60;;;1.50;;
23728;SDS011;12045;60.214;24.724;2023-05-21T06:59:36;2.05;;;1.50;;
23728;SDS011;12045;60.214;24.724;2023-05-21T07:02:03;2.65;;;1.80;;
23728;SDS011;12045;60.214;24.724;2023-05-21T07:04:31;3.08;;;1.63;;
23728;SDS011;12045;60.214;24.724;2023-05-21T07:07:01;1.90;;;1.50;;
23728;SDS011;12045;60.214;24.724;2023-05-21T07:09:32;2.05;;;1.58;;
23728;SDS011;12045;60.214;24.724;2023-05-21T07:12:00;2.55;;;1.70;;
23728;SDS011;12045;60.214;24.724;2023-05-21T07:14:28;1.90;;;1.50;;
23728;SDS011;12045;60.214;24.724;2023-05-21T07:16:55;2.00;;;1.65;;
23728;SDS011;12045;60.214;24.724;2023-05-21T07:19:23;1.50;;;1.40;;
23728;SDS011;12045;60.214;24.724;2023-05-21T07:21:51;1.80;;;1.60;;
23728;SDS011;12045;60.214;24.724;2023-05-21T07:24:19;1.88;;;1.40;;
23728;SDS011;12045;60.214;24.724;2023-05-21T07:26:47;2.72;;;1.58;;
23728;SDS011;12045;60.214;24.724;2023-05-21T07:29:15;1.85;;;1.33;;
23728;SDS011;12045;60.214;24.724;2023-05-21T07:31:43;2.33;;;1.60;;
23728;SDS011;12045;60.214;24.724;2023-05-21T07:34:11;2.38;;;1.42;;
23728;SDS011;12045;60.214;24.724;2023-05-21T07:36:38;1.55;;;1.40;;
23728;SDS011;12045;60.214;24.724;2023-05-21T07:39:06;1.98;;;1.48;;
23728;SDS011;12045;60.214;24.724;2023-05-21T07:41:34;2.00;;;1.60;;
23728;SDS011;12045;60.214;24.724;2023-05-21T07:44:02;2.97;;;1.58;;
23728;SDS011;12045;60.214;24.724;2023-05-21T07:46:30;2.70;;;1.45;;
23728;SDS011;12045;60.214;24.724;2023-05-21T07:48:57;2.15;;;1.70;;
23728;SDS011;12045;60.214;24.724;2023-05-21T07:51:25;3.42;;;1.63;;
23728;SDS011;12045;60.214;24.724;2023-05-21T07:53:53;1.60;;;1.45;;
23728;SDS011;12045;60.214;24.724;2023-05-21T07:56:22;1.63;;;1.40;;
23728;SDS011;12045;60.214;24.724;2023-05-21T07:58:50;3.38;;;1.55;;
23728;SDS011;12045;60.214;24.724;2023-05-21T08:01:17;2.80;;;1.40;;
23728;SDS011;12045;60.214;24.724;2023-05-21T08:03:45;1.58;;;1.48;;
23728;SDS011;12045;60.214;24.724;2023-05-21T08:06:13;2.47;;;1.70;;
23728;SDS011;12045;60.214;24.724;2023-05-21T08:08:41;2.90;;;1.50;;
23728;SDS011;12045;60.214;24.724;2023-05-21T08:11:09;1.90;;;1.60;;
23728;SDS011;12045;60.214;24.724;2023-05-21T08:13:36;1.83;;;1.60;;
23728;SDS011;12045;60.214;24.724;2023-05-21T08:16:04;3.35;;;2.15;;
23728;SDS011;12045;60.214;24.724;2023-05-21T08:18:32;2.42;;;1.63;;
23728;SDS011;12045;60.214;24.724;2023-05-21T08:21:00;2.30;;;1.63;;
23728;SDS011;12045;60.214;24.724;2023-05-21T08:23:28;1.88;;;1.60;;
23728;SDS011;12045;60.214;24.724;2023-05-21T08:25:57;2.80;;;1.70;;
23728;SDS011;12045;60.214;24.724;2023-05-21T08:28:25;2.40;;;1.80;;
23728;SDS011;12045;60.214;24.724;2023-05-21T08:30:54;1.42;;;1.33;;
23728;SDS011;12045;60.214;24.724;2023-05-21T08:33:22;2.00;;;1.80;;
23728;SDS011;12045;60.214;24.724;2023-05-21T08:35:50;5.20;;;1.67;;
23728;SDS011;12045;60.214;24.724;2023-05-21T08:38:18;1.80;;;1.70;;
23728;SDS011;12045;60.214;24.724;2023-05-21T08:40:45;3.13;;;1.67;;
23728;SDS011;12045;60.214;24.724;2023-05-21T08:43:13;2.78;;;1.70;;
23728;SDS011;12045;60.214;24.724;2023-05-21T08:45:46;3.30;;;1.90;;
23728;SDS011;12045;60.214;24.724;2023-05-21T08:48:16;1.80;;;1.58;;
23728;SDS011;12045;60.214;24.724;2023-05-21T08:50:44;2.20;;;1.90;;
23728;SDS011;12045;60.214;24.724;2023-05-21T08:53:12;2.28;;;1.80;;
23728;SDS011;12045;60.214;24.724;2023-05-21T08:55:53;1.80;;;1.70;;
23728;SDS011;12045;60.214;24.724;2023-05-21T08:58:21;2.65;;;1.88;;
23728;SDS011;12045;60.214;24.724;2023-05-21T09:00:49;2.42;;;1.63;;
23728;SDS011;12045;60.214;24.724;2023-05-21T09:03:18;2.33;;;1.80;;
23728;SDS011;12045;60.214;24.724;2023-05-21T09:05:48;3.50;;;1.80;;
23728;SDS011;12045;60.214;24.724;2023-05-21T09:08:20;2.78;;;1.88;;
23728;SDS011;12045;60.214;24.724;2023-05-21T09:10:50;2.35;;;1.60;;
23728;SDS011;12045;60.214;24.724;2023-05-21T09:13:19;2.25;;;1.50;;
23728;SDS011;12045;60.214;24.724;2023-05-21T09:15:47;1.90;;;1.65;;
23728;SDS011;12045;60.214;24.724;2023-05-21T09:18:15;2.15;;;1.77;;
23728;SDS011;12045;60.214;24.724;2023-05-21T09:20:43;2.20;;;1.70;;
23728;SDS011;12045;60.214;24.724;2023-05-21T09:23:11;1.95;;;1.60;;
23728;SDS011;12045;60.214;24.724;2023-05-21T09:25:46;2.00;;;1.80;;
23728;SDS011;12045;60.214;24.724;2023-05-21T09:28:14;1.90;;;1.70;;
23728;SDS011;12045;60.214;24.724;2023-05-21T09:30:43;3.53;;;1.98;;
23728;SDS011;12045;60.214;24.724;2023-05-21T09:33:23;2.22;;;1.60;;
23728;SDS011;12045;60.214;24.724;2023-05-21T09:35:51;2.20;;;1.90;;
23728;SDS011;12045;60.214;24.724;2023-05-21T09:38:22;2.20;;;1.60;;
23728;SDS011;12045;60.214;24.724;2023-05-21T09:40:53;3.17;;;1.92;;
23728;SDS011;12045;60.214;24.724;2023-05-21T09:43:24;2.13;;;1.70;;
23728;SDS011;12045;60.214;24.724;2023-05-21T09:45:53;2.35;;;1.80;;
23728;SDS011;12045;60.214;24.724;2023-05-21T09:48:36;2.63;;;1.90;;
23728;SDS011;12045;60.214;24.724;2023-05-21T09:51:16;2.00;;;1.70;;
23728;SDS011;12045;60.214;24.724;2023-05-21T09:53:54;2.53;;;1.70;;
23728;SDS011;12045;60.214;24.724;2023-05-21T09:56:24;2.00;;;1.80;;
23728;SDS011;12045;60.214;24.724;2023-05-21T09:58:53;2.28;;;1.77;;
23728;SDS011;12045;60.214;24.724;2023-05-21T10:01:22;1.92;;;1.73;;
23728;SDS011;12045;60.214;24.724;2023-05-21T10:03:54;3.22;;;1.88;;
23728;SDS011;12045;60.214;24.724;2023-05-21T10:06:29;3.17;;;1.88;;
23728;SDS011;12045;60.214;24.724;2023-05-21T10:09:01;2.20;;;1.67;;
23728;SDS011;12045;60.214;24.724;2023-05-21T10:11:31;3.95;;;1.90;;
23728;SDS011;12045;60.214;24.724;2023-05-21T10:14:08;3.15;;;1.83;;
23728;SDS011;12045;60.214;24.724;2023-05-21T10:16:37;2.22;;;1.60;;
23728;SDS011;12045;60.214;24.724;2023-05-21T10:19:05;3.03;;;1.58;;
23728;SDS011;12045;60.214;24.724;2023-05-21T10:21:36;2.65;;;1.80;;
23728;SDS011;12045;60.214;24.724;2023-05-21T10:24:05;2.95;;;1.60;;
23728;SDS011;12045;60.214;24.724;2023-05-21T10:26:34;2.47;;;1.95;;
23728;SDS011;12045;60.214;24.724;2023-05-21T10:29:04;4.93;;;1.70;;
23728;SDS011;12045;60.214;24.724;2023-05-21T10:31:31;2.38;;;1.63;;
23728;SDS011;12045;60.214;24.724;2023-05-21T10:34:00;2.33;;;1.88;;
23728;SDS011;12045;60.214;24.724;2023-05-21T10:36:31;2.67;;;1.80;;
23728;SDS011;12045;60.214;24.724;2023-05-21T10:39:02;2.55;;;1.83;;
23728;SDS011;12045;60.214;24.724;2023-05-21T10:41:32;5.05;;;1.90;;
23728;SDS011;12045;60.214;24.724;2023-05-21T10:44:24;2.25;;;1.63;;
23728;SDS011;12045;60.214;24.724;2023-05-21T10:49:58;4.03;;;1.63;;
23728;SDS011;12045;60.214;24.724;2023-05-21T10:53:04;3.13;;;1.90;;
23728;SDS011;12045;60.214;24.724;2023-05-21T10:58:22;1.98;;;1.60;;
23728;SDS011;12045;60.214;24.724;2023-05-21T11:01:17;2.28;;;1.58;;
23728;SDS011;12045;60.214;24.724;2023-05-21T11:03:46;3.85;;;1.90;;
23728;SDS011;12045;60.214;24.724;2023-05-21T11:06:21;2.55;;;1.92;;
23728;SDS011;12045;60.214;24.724;2023-05-21T11:08:51;1.85;;;1.60;;
23728;SDS011;12045;60.214;24.724;2023-05-21T11:17:12;3.03;;;1.60;;
23728;SDS011;12045;60.214;24.724;2023-05-21T11:19:43;3.22;;;1.40;;
23728;SDS011;12045;60.214;24.724;2023-05-21T11:22:21;2.92;;;1.73;;
23728;SDS011;12045;60.214;24.724;2023-05-21T11:24:50;3.75;;;1.60;;
23728;SDS011;12045;60.214;24.724;2023-05-21T11:27:32;2.53;;;1.85;;
23728;SDS011;12045;60.214;24.724;2023-05-21T11:30:07;1.85;;;1.48;;
23728;SDS011;12045;60.214;24.724;2023-05-21T11:32:36;2.70;;;1.88;;
23728;SDS011;12045;60.214;24.724;2023-05-21T11:35:06;2.30;;;1.50;;
23728;SDS011;12045;60.214;24.724;2023-05-21T11:37:33;2.20;;;1.85;;
23728;SDS011;12045;60.214;24.724;2023-05-21T11:40:17;2.30;;;1.90;;
23728;SDS011;12045;60.214;24.724;2023-05-21T11:42:52;1.73;;;1.58;;
23728;SDS011;12045;60.214;24.724;2023-05-21T11:45:21;3.50;;;1.75;;
23728;SDS011;12045;60.214;24.724;2023-05-21T11:47:54;5.60;;;1.77;;
23728;SDS011;12045;60.214;24.724;2023-05-21T11:50:22;2.42;;;1.92;;
23728;SDS011;12045;60.214;24.724;2023-05-21T11:52:50;2.90;;;1.80;;
23728;SDS011;12045;60.214;24.724;2023-05-21T11:55:22;3.55;;;1.73;;
23728;SDS011;12045;60.214;24.724;2023-05-21T11:57:52;2.00;;;1.80;;
23728;SDS011;12045;60.214;24.724;2023-05-21T12:00:20;3.92;;;1.90;;
23728;SDS011;12045;60.214;24.724;2023-05-21T12:02:49;2.75;;;1.90;;
23728;SDS011;12045;60.214;24.724;2023-05-21T12:05:19;2.25;;;1.75;;
23728;SDS011;12045;60.214;24.724;2023-05-21T12:07:46;1.98;;;1.65;;
23728;SDS011;12045;60.214;24.724;2023-05-21T12:10:21;1.80;;;1.60;;
23728;SDS011;12045;60.214;24.724;2023-05-21T12:12:59;3.42;;;2.00;;
23728;SDS011;12045;60.214;24.724;2023-05-21T12:15:27;2.55;;;1.77;;
23728;SDS011;12045;60.214;24.724;2023-05-21T12:17:55;2.60;;;1.80;;
23728;SDS011;12045;60.214;24.724;2023-05-21T12:20:27;1.80;;;1.60;;
23728;SDS011;12045;60.214;24.724;2023-05-21T12:22:55;3.63;;;1.90;;
23728;SDS011;12045;60.214;24.724;2023-05-21T12:25:23;3.53;;;1.90;;
23728;SDS011;12045;60.214;24.724;2023-05-21T12:27:50;2.20;;;1.65;;
23728;SDS011;12045;60.214;24.724;2023-05-21T12:30:24;3.97;;;1.80;;
23728;SDS011;12045;60.214;24.724;2023-05-21T12:32:52;2.47;;;1.85;;
23728;SDS011;12045;60.214;24.724;2023-05-21T12:35:22;2.90;;;1.77;;
23728;SDS011;12045;60.214;24.724;2023-05-21T12:37:50;2.20;;;1.90;;
23728;SDS011;12045;60.214;24.724;2023-05-21T12:40:18;2.53;;;2.00;;
23728;SDS011;12045;60.214;24.724;2023-05-21T12:42:46;2.35;;;1.80;;
23728;SDS011;12045;60.214;24.724;2023-05-21T12:45:15;2.08;;;1.80;;
23728;SDS011;12045;60.214;24.724;2023-05-21T12:47:46;2.33;;;1.92;;
23728;SDS011;12045;60.214;24.724;2023-05-21T12:50:18;3.90;;;1.98;;
23728;SDS011;12045;60.214;24.724;2023-05-21T12:52:46;3.58;;;1.98;;
23728;SDS011;12045;60.214;24.724;2023-05-21T12:55:14;1.85;;;1.70;;
23728;SDS011;12045;60.214;24.724;2023-05-21T12:57:43;3.17;;;1.70;;
23728;SDS011;12045;60.214;24.724;2023-05-21T13:00:10;2.58;;;1.73;;
23728;SDS011;12045;60.214;24.724;2023-05-21T13:02:39;2.20;;;1.83;;
23728;SDS011;12045;60.214;24.724;2023-05-21T13:05:09;2.05;;;1.85;;
23728;SDS011;12045;60.214;24.724;2023-05-21T13:07:41;2.15;;;1.70;;
23728;SDS011;12045;60.214;24.724;2023-05-21T13:10:13;3.13;;;1.80;;
23728;SDS011;12045;60.214;24.724;2023-05-21T13:12:43;3.20;;;1.70;;
23728;SDS011;12045;60.214;24.724;2023-05-21T13:15:11;3.30;;;1.80;;
23728;SDS011;12045;60.214;24.724;2023-05-21T13:17:38;2.83;;;1.77;;
23728;SDS011;12045;60.214;24.724;2023-05-21T13:22:52;2.92;;;1.85;;
23728;SDS011;12045;60.214;24.724;2023-05-21T13:25:20;2.63;;;1.90;;
23728;SDS011;12045;60.214;24.724;2023-05-21T13:27:51;2.10;;;1.73;;
23728;SDS011;12045;60.214;24.724;2023-05-21T13:30:20;2.95;;;2.03;;
23728;SDS011;12045;60.214;24.724;2023-05-21T13:32:48;2.88;;;2.00;;
23728;SDS011;12045;60.214;24.724;2023-05-21T13:35:16;3.05;;;1.95;;
23728;SDS011;12045;60.214;24.724;2023-05-21T13:37:44;3.00;;;1.98;;
23728;SDS011;12045;60.214;24.724;2023-05-21T13:40:12;2.28;;;2.05;;
23728;SDS011;12045;60.214;24.724;2023-05-21T13:42:45;2.75;;;2.05;;
23728;SDS011;12045;60.214;24.724;2023-05-21T13:45:15;3.03;;;1.90;;
23728;SDS011;12045;60.214;24.724;2023-05-21T13:47:44;2.72;;;1.60;;
23728;SDS011;12045;60.214;24.724;2023-05-21T13:50:12;3.22;;;2.00;;
23728;SDS011;12045;60.214;24.724;2023-05-21T13:52:40;1.98;;;1.67;;
23728;SDS011;12045;60.214;24.724;2023-05-21T13:55:08;3.85;;;2.10;;
23728;SDS011;12045;60.214;24.724;2023-05-21T13:57:36;2.92;;;1.80;;
23728;SDS011;12045;60.214;24.724;2023-05-21T14:00:04;4.53;;;1.88;;
23728;SDS011;12045;60.214;24.724;2023-05-21T14:02:35;2.25;;;1.80;;
23728;SDS011;12045;60.214;24.724;2023-05-21T14:05:02;3.15;;;1.80;;
23728;SDS011;12045;60.214;24.724;2023-05-21T14:07:30;2.03;;;1.83;;
23728;SDS011;12045;60.214;24.724;2023-05-21T14:09:58;2.88;;;1.65;;
23728;SDS011;12045;60.214;24.724;2023-05-21T14:12:25;2.20;;;1.80;;
23728;SDS011;12045;60.214;24.724;2023-05-21T14:14:54;3.03;;;2.00;;
23728;SDS011;12045;60.214;24.724;2023-05-21T14:17:21;2.50;;;1.95;;
23728;SDS011;12045;60.214;24.724;2023-05-21T14:19:49;2.65;;;1.80;;
23728;SDS011;12045;60.214;24.724;2023-05-21T14:22:16;4.00;;;2.17;;
23728;SDS011;12045;60.214;24.724;2023-05-21T14:24:44;2.00;;;1.60;;
23728;SDS011;12045;60.214;24.724;2023-05-21T14:27:11;2.70;;;1.70;;
23728;SDS011;12045;60.214;24.724;2023-05-21T14:29:41;3.10;;;2.00;;
23728;SDS011;12045;60.214;24.724;2023-05-21T14:32:08;3.30;;;2.03;;
23728;SDS011;12045;60.214;24.724;2023-05-21T14:34:36;4.78;;;1.90;;
23728;SDS011;12045;60.214;24.724;2023-05-21T14:37:04;2.08;;;1.83;;
23728;SDS011;12045;60.214;24.724;2023-05-21T14:39:32;3.40;;;1.88;;
23728;SDS011;12045;60.214;24.724;2023-05-21T14:42:01;2.42;;;1.80;;
23728;SDS011;12045;60.214;24.724;2023-05-21T14:44:30;3.17;;;2.10;;
23728;SDS011;12045;60.214;24.724;2023-05-21T14:46:58;2.63;;;1.95;;
23728;SDS011;12045;60.214;24.724;2023-05-21T14:49:26;3.50;;;1.92;;
23728;SDS011;12045;60.214;24.724;2023-05-21T14:51:54;5.00;;;2.10;;
23728;SDS011;12045;60.214;24.724;2023-05-21T14:54:22;3.35;;;1.80;;
23728;SDS011;12045;60.214;24.724;2023-05-21T14:56:50;3.15;;;1.80;;
23728;SDS011;12045;60.214;24.724;2023-05-21T14:59:17;3.22;;;1.65;;